createdAt,value
2018-12-04T00:01:30.436Z,1.40
2018-12-04T00:06:33.851Z,0.97
2018-12-04T00:11:37.259Z,1.20
2018-12-04T00:16:40.586Z,1.57
2018-12-04T00:21:44.021Z,2.00
2018-12-04T00:26:47.424Z,2.33
2018-12-04T00:31:50.861Z,2.07
2018-12-04T00:36:54.288Z,2.00
2018-12-04T00:41:57.607Z,1.40
2018-12-04T00:47:00.996Z,1.80
2018-12-04T00:52:04.383Z,2.83
2018-12-04T00:57:07.950Z,2.07
2018-12-04T01:02:18.752Z,2.43
2018-12-04T01:07:22.177Z,2.67
2018-12-04T01:12:25.579Z,2.50
2018-12-04T01:17:29.167Z,1.77
2018-12-04T01:22:32.527Z,1.73
2018-12-04T01:27:35.973Z,2.67
2018-12-04T01:32:39.380Z,2.17
2018-12-04T01:37:42.911Z,2.00
2018-12-04T01:42:46.274Z,1.80
2018-12-04T01:47:49.707Z,1.67
2018-12-04T01:52:53.125Z,1.90
2018-12-04T01:58:00.304Z,1.43
2018-12-04T02:03:03.725Z,2.67
2018-12-04T02:08:07.130Z,1.67
2018-12-04T02:13:10.495Z,1.83
2018-12-04T02:18:13.953Z,2.00
2018-12-04T02:23:17.369Z,2.20
2018-12-04T02:28:20.737Z,4.97
2018-12-04T02:33:24.125Z,2.90
2018-12-04T02:38:27.484Z,2.43
2018-12-04T02:43:30.857Z,2.00
2018-12-04T02:48:37.148Z,1.63
2018-12-04T02:53:40.616Z,1.67
2018-12-04T02:58:43.994Z,1.83
2018-12-04T03:03:47.451Z,2.37
2018-12-04T03:08:51.126Z,1.73
2018-12-04T03:13:54.566Z,1.50
2018-12-04T03:18:57.986Z,1.20
2018-12-04T03:24:01.361Z,1.97
2018-12-04T03:29:04.952Z,2.37
2018-12-04T03:34:08.375Z,2.70
2018-12-04T03:39:11.977Z,4.27
2018-12-04T03:44:15.294Z,2.73
2018-12-04T03:49:18.758Z,1.83
2018-12-04T03:54:22.131Z,3.03
2018-12-04T03:59:25.733Z,2.00
2018-12-04T04:04:29.385Z,3.03
2018-12-04T04:09:33.018Z,2.00
2018-12-04T04:14:36.427Z,1.50
2018-12-04T04:19:39.788Z,3.20
2018-12-04T04:24:43.224Z,1.53
2018-12-04T04:29:46.696Z,2.13
2018-12-04T04:34:50.045Z,1.90
2018-12-04T04:39:53.448Z,2.03
2018-12-04T04:44:56.868Z,1.97
2018-12-04T04:50:00.194Z,2.87
2018-12-04T04:55:03.671Z,2.87
2018-12-04T05:00:08.079Z,3.10
2018-12-04T05:05:24.201Z,1.73
2018-12-04T05:10:27.687Z,2.60
2018-12-04T05:15:31.154Z,1.83
2018-12-04T05:20:34.559Z,4.60
2018-12-04T05:25:37.975Z,1.90
2018-12-04T05:30:41.395Z,17.33
2018-12-04T05:35:44.766Z,7.93
2018-12-04T05:40:48.213Z,3.97
2018-12-04T05:45:51.666Z,2.40
2018-12-04T05:50:55.057Z,3.53
2018-12-04T05:55:58.394Z,2.10
2018-12-04T06:01:01.939Z,2.67
2018-12-04T06:06:05.390Z,1.77
2018-12-04T06:11:08.867Z,2.57
2018-12-04T06:16:12.234Z,2.67
2018-12-04T06:21:15.659Z,2.33
2018-12-04T06:26:19.142Z,2.97
2018-12-04T06:31:22.747Z,3.70
2018-12-04T06:36:26.162Z,3.17
2018-12-04T06:41:29.564Z,2.47
2018-12-04T06:46:33.020Z,2.67
2018-12-04T06:51:36.454Z,3.30
2018-12-04T06:56:39.878Z,2.73
2018-12-04T07:01:43.297Z,2.73
2018-12-04T07:06:46.753Z,1.87
2018-12-04T07:11:50.164Z,1.87
2018-12-04T07:16:53.781Z,2.63
2018-12-04T07:21:57.140Z,2.57
2018-12-04T07:27:00.528Z,2.40
2018-12-04T07:32:03.893Z,2.17
2018-12-04T07:37:07.288Z,2.43
2018-12-04T07:42:30.053Z,2.53
2018-12-04T07:47:52.861Z,1.90
2018-12-04T07:52:56.323Z,2.60
2018-12-04T07:57:59.689Z,1.60
2018-12-04T08:03:03.099Z,3.07
2018-12-04T08:08:06.455Z,1.83
2018-12-04T08:13:49.227Z,1.60
2018-12-04T08:18:52.631Z,1.53
2018-12-04T08:23:56.052Z,2.77
2018-12-04T08:28:59.415Z,4.63
2018-12-04T08:34:02.833Z,2.27
2018-12-04T08:39:12.942Z,2.87
2018-12-04T08:44:11.198Z,3.47
2018-12-04T08:49:14.579Z,2.97
2018-12-04T08:54:18.075Z,3.23
2018-12-04T08:59:21.528Z,3.07
2018-12-04T09:04:24.941Z,2.73
2018-12-04T09:09:28.322Z,2.63
2018-12-04T09:14:31.729Z,3.43
2018-12-04T09:19:35.109Z,2.03
2018-12-04T09:24:38.503Z,2.70
2018-12-04T09:29:41.848Z,2.40
2018-12-04T09:34:45.160Z,2.97
2018-12-04T09:39:48.559Z,3.13
2018-12-04T09:44:52.028Z,2.17
2018-12-04T09:49:55.368Z,3.10
2018-12-04T09:54:58.878Z,3.47
2018-12-04T10:00:02.310Z,2.93
2018-12-04T10:05:05.915Z,1.97
2018-12-04T10:10:09.587Z,2.10
2018-12-04T10:15:12.961Z,2.80
2018-12-04T10:20:16.366Z,2.23
2018-12-04T10:25:19.679Z,2.73
2018-12-04T10:30:31.575Z,2.63
2018-12-04T10:35:28.859Z,1.80
2018-12-04T10:40:32.233Z,2.13
2018-12-04T10:45:35.552Z,2.70
2018-12-04T10:50:38.994Z,1.97
2018-12-04T10:55:42.339Z,2.07
2018-12-04T11:01:04.752Z,2.03
2018-12-04T11:06:08.135Z,1.97
2018-12-04T11:11:11.500Z,2.77
2018-12-04T11:16:14.844Z,2.13
2018-12-04T11:21:18.244Z,1.63
2018-12-04T11:26:21.620Z,2.47
2018-12-04T11:31:25.017Z,2.77
2018-12-04T11:36:28.406Z,2.07
2018-12-04T11:41:51.184Z,2.70
2018-12-04T11:46:54.906Z,3.17
2018-12-04T11:51:58.356Z,2.10
2018-12-04T11:57:01.682Z,2.80
2018-12-04T12:02:10.701Z,2.67
2018-12-04T12:07:08.476Z,2.17
2018-12-04T12:12:11.899Z,2.30
2018-12-04T12:17:15.269Z,2.60
2018-12-04T12:22:19.104Z,1.77
2018-12-04T12:27:22.342Z,2.63
2018-12-04T12:32:26.018Z,3.73
2018-12-04T12:37:29.381Z,3.27
2018-12-04T12:42:32.784Z,3.37
2018-12-04T12:47:36.185Z,2.23
2018-12-04T12:52:39.660Z,2.23
2018-12-04T12:57:43.063Z,1.30
2018-12-04T13:02:46.475Z,1.60
2018-12-04T13:07:49.835Z,2.37
2018-12-04T13:12:53.148Z,3.77
2018-12-04T13:17:56.541Z,1.80
2018-12-04T13:22:59.969Z,2.67
2018-12-04T13:28:03.331Z,3.07
2018-12-04T13:33:06.734Z,2.90
2018-12-04T13:38:10.140Z,2.70
2018-12-04T13:43:13.657Z,1.60
2018-12-04T13:48:17.061Z,3.07
2018-12-04T13:53:20.482Z,2.40
2018-12-04T13:58:23.907Z,1.80
2018-12-04T14:03:27.310Z,2.10
2018-12-04T14:08:30.718Z,1.97
2018-12-04T14:13:34.140Z,2.97
2018-12-04T14:18:37.508Z,2.47
2018-12-04T14:23:40.845Z,2.17
2018-12-04T14:28:44.313Z,1.73
2018-12-04T14:33:47.717Z,2.63
2018-12-04T14:38:51.091Z,2.33
2018-12-04T14:43:54.505Z,2.40
2018-12-04T14:48:57.908Z,2.97
2018-12-04T14:54:01.246Z,3.70
2018-12-04T14:59:24.936Z,2.43
2018-12-04T15:04:28.375Z,2.83
2018-12-04T15:14:40.586Z,2.47
2018-12-04T15:19:43.990Z,2.73
2018-12-04T15:24:47.379Z,2.57
2018-12-04T15:29:50.791Z,2.93
2018-12-04T15:34:54.222Z,2.90
2018-12-04T15:39:57.536Z,2.70
2018-12-04T15:45:00.936Z,3.00
2018-12-04T15:50:04.928Z,2.40
2018-12-04T15:55:08.249Z,3.87
2018-12-04T16:05:36.218Z,6.03
2018-12-04T16:10:39.621Z,4.30
2018-12-04T16:15:42.989Z,4.83
2018-12-04T16:20:46.351Z,3.43
2018-12-04T16:25:49.820Z,2.80
2018-12-04T16:30:53.302Z,3.50
2018-12-04T16:35:56.703Z,2.67
2018-12-04T16:41:00.081Z,1.90
2018-12-04T16:46:03.517Z,2.17
2018-12-04T16:51:07.519Z,9.13
2018-12-04T16:56:10.844Z,8.43
2018-12-04T17:01:14.367Z,6.37
2018-12-04T17:06:17.731Z,5.63
2018-12-04T17:11:40.479Z,4.77
2018-12-04T17:16:43.963Z,4.70
2018-12-04T17:21:47.326Z,4.80
2018-12-04T17:26:50.719Z,4.10
2018-12-04T17:31:54.132Z,4.20
2018-12-04T17:36:57.459Z,3.57
2018-12-04T17:42:00.874Z,3.07
2018-12-04T17:47:04.280Z,3.97
2018-12-04T17:52:07.710Z,10.23
2018-12-04T17:57:11.136Z,8.93
2018-12-04T18:02:14.574Z,6.13
2018-12-04T18:07:17.945Z,6.70
2018-12-04T18:12:21.352Z,4.97
2018-12-04T18:17:24.817Z,6.20
2018-12-04T18:22:28.192Z,12.63
2018-12-04T18:27:31.516Z,11.43
2018-12-04T18:32:34.889Z,10.60
2018-12-04T18:37:38.307Z,7.17
2018-12-04T18:42:41.663Z,7.37
2018-12-04T18:53:13.512Z,6.87
2018-12-04T18:58:17.115Z,5.40
2018-12-04T19:03:20.495Z,6.33
2018-12-04T19:08:42.985Z,5.83
2018-12-04T19:13:46.420Z,7.43
2018-12-04T19:18:49.772Z,9.87
2018-12-04T19:23:53.255Z,9.90
2018-12-04T19:28:56.614Z,8.77
2018-12-04T19:34:00.030Z,9.73
2018-12-04T19:39:04.097Z,8.97
2018-12-04T19:44:07.605Z,7.57
2018-12-04T19:49:11.039Z,8.40
2018-12-04T19:54:14.476Z,8.80
2018-12-04T19:59:17.894Z,8.80
2018-12-04T20:04:21.351Z,8.17
2018-12-04T20:09:24.793Z,7.00
2018-12-04T20:14:28.185Z,8.03
2018-12-04T20:19:31.600Z,6.97
2018-12-04T20:24:35.302Z,7.77
2018-12-04T20:29:38.868Z,7.57
2018-12-04T20:34:44.657Z,7.03
2018-12-04T20:45:00.428Z,8.17
2018-12-04T20:50:04.483Z,9.40
2018-12-04T21:00:30.360Z,9.13
2018-12-04T21:10:44.395Z,8.00
2018-12-04T21:26:37.697Z,6.70
2018-12-04T21:32:00.630Z,7.17
2018-12-04T21:37:23.153Z,6.67
2018-12-04T21:42:40.318Z,8.27
2018-12-04T21:53:08.391Z,12.40
2018-12-04T21:58:13.632Z,12.23
2018-12-04T22:03:18.739Z,12.63
2018-12-04T22:23:53.739Z,12.97
2018-12-04T22:34:28.130Z,13.57
2018-12-04T22:55:00.921Z,12.00
2018-12-04T23:00:08.912Z,10.33
2018-12-04T23:15:39.959Z,11.60
2018-12-04T23:25:55.731Z,12.63
2018-12-04T23:31:19.362Z,12.73
2018-12-04T23:36:38.432Z,11.70
2018-12-04T23:41:56.570Z,13.90
2018-12-04T23:46:59.994Z,14.80
2018-12-04T23:52:03.362Z,13.23
2018-12-04T23:57:06.863Z,15.07
